Time;durP1;ratioP1;P1;durP2;ratioP2;P2;SDS_P1;SDS_P2;PMS_P1;PMS_P2;Temp;Humidity;BMP_temperature;BMP_pressure;BME280_temperature;BME280_humidity;BME280_pressure;Samples;Min_cycle;Max_cycle;Signal;HPM_P1;HPM_P2
2023/07/24 00:01:46;;;;;;;15.23;7.50;;;;;;;17.27;100.00;97475.06;5071293;28;20208;-75
2023/07/24 00:04:17;;;;;;;14.30;7.30;;;;;;;17.33;100.00;97471.72;5071158;28;20211;-75
2023/07/24 00:06:44;;;;;;;10.30;6.80;;;;;;;17.25;100.00;97505.59;5071211;28;20284;-76
2023/07/24 00:09:10;;;;;;;12.80;7.30;;;;;;;17.20;100.00;97500.72;5070457;28;20231;-76
2023/07/24 00:11:38;;;;;;;10.57;6.67;;;;;;;17.23;100.00;97468.34;5072705;28;20230;-75
2023/07/24 00:14:07;;;;;;;9.40;6.67;;;;;;;17.20;100.00;97447.31;5075454;28;20289;-75
2023/07/24 00:16:33;;;;;;;10.17;6.27;;;;;;;17.16;100.00;97435.28;5075033;28;20233;-75
2023/07/24 00:19:00;;;;;;;11.00;7.50;;;;;;;17.20;100.00;97451.81;5074888;28;20231;-75
2023/07/24 00:21:26;;;;;;;10.27;7.00;;;;;;;17.17;100.00;97468.16;5074655;28;20604;-77
2023/07/24 00:23:53;;;;;;;11.63;7.47;;;;;;;17.17;100.00;97463.66;5074977;28;20211;-75
2023/07/24 00:26:19;;;;;;;14.57;8.07;;;;;;;17.20;100.00;97447.31;5075034;28;20218;-75
2023/07/24 00:28:47;;;;;;;10.47;6.70;;;;;;;17.16;100.00;97439.78;5074796;28;20235;-76
2023/07/24 00:31:13;;;;;;;11.07;7.50;;;;;;;17.10;100.00;97427.94;5073830;28;20210;-75
2023/07/24 00:33:40;;;;;;;11.97;7.60;;;;;;;17.04;100.00;97423.25;5074804;28;20204;-74
2023/07/24 00:36:06;;;;;;;10.07;6.67;;;;;;;16.97;100.00;97427.56;5074775;28;20239;-75
2023/07/24 00:38:33;;;;;;;9.97;6.63;;;;;;;16.84;100.00;97419.19;5074543;28;20246;-75
2023/07/24 00:40:59;;;;;;;11.87;7.57;;;;;;;16.79;100.00;97415.31;5073827;28;20216;-75
2023/07/24 00:43:28;;;;;;;11.00;7.07;;;;;;;16.77;100.00;97415.47;5074770;28;20218;-75
2023/07/24 00:45:57;;;;;;;10.83;7.33;;;;;;;16.80;100.00;97407.16;5074779;28;20210;-75
2023/07/24 00:48:24;;;;;;;9.57;6.93;;;;;;;16.76;100.00;97404.97;5075159;28;20230;-76
2023/07/24 00:50:51;;;;;;;11.77;7.83;;;;;;;16.77;100.00;97406.66;5073764;28;20592;-75
2023/07/24 00:53:19;;;;;;;9.13;6.87;;;;;;;16.76;100.00;97399.66;5074340;28;20211;-76
2023/07/24 00:55:49;;;;;;;10.80;7.40;;;;;;;16.76;100.00;97392.47;5074233;28;20231;-75
2023/07/24 00:58:17;;;;;;;9.93;7.30;;;;;;;16.76;100.00;97388.97;5074116;28;20234;-76
2023/07/24 01:00:44;;;;;;;11.10;6.83;;;;;;;16.70;100.00;97385.09;5070766;28;20211;-75
2023/07/24 01:03:12;;;;;;;10.67;6.93;;;;;;;16.66;100.00;97382.94;5071559;28;20584;-76
2023/07/24 01:05:40;;;;;;;8.80;6.43;;;;;;;16.62;100.00;97376.22;5071158;28;20207;-76
2023/07/24 01:08:06;;;;;;;10.43;6.77;;;;;;;16.56;100.00;97376.88;5072208;28;20249;-75
2023/07/24 01:10:33;;;;;;;13.03;7.13;;;;;;;16.51;100.00;97361.34;5073372;28;20211;-75
2023/07/24 01:13:03;;;;;;;9.23;7.03;;;;;;;16.47;100.00;97370.66;5074344;28;20216;-75
2023/07/24 01:15:33;;;;;;;9.20;6.50;;;;;;;16.44;100.00;97360.34;5073976;28;20583;-75
2023/07/24 01:18:01;;;;;;;12.23;7.70;;;;;;;16.41;100.00;97357.97;5074154;28;20231;-76
2023/07/24 01:20:31;;;;;;;9.47;6.73;;;;;;;16.39;100.00;97351.16;5073155;28;20203;-75
2023/07/24 01:23:20;;;;;;;9.73;7.23;;;;;;;16.36;100.00;97346.94;5073229;28;20226;-75
2023/07/24 01:25:54;;;;;;;9.20;6.63;;;;;;;16.34;100.00;97348.91;5073811;28;20207;-75
2023/07/24 01:28:21;;;;;;;10.97;7.43;;;;;;;16.36;100.00;97340.75;5074050;28;20231;-75
2023/07/24 01:30:47;;;;;;;9.03;6.40;;;;;;;16.35;100.00;97337.25;5072675;28;20210;-76
2023/07/24 01:33:14;;;;;;;9.67;6.63;;;;;;;16.35;100.00;97339.09;5074079;28;20211;-76
2023/07/24 01:35:43;;;;;;;11.27;6.80;;;;;;;16.37;100.00;97340.59;5073647;28;20261;-75
2023/07/24 01:38:10;;;;;;;9.23;6.83;;;;;;;16.36;100.00;97333.59;5073549;28;20235;-76
2023/07/24 01:40:37;;;;;;;10.10;7.00;;;;;;;16.38;100.00;97346.78;5072897;28;20222;-77
2023/07/24 01:43:05;;;;;;;10.00;6.63;;;;;;;16.38;100.00;97339.63;5073389;28;20239;-76
2023/07/24 01:45:31;;;;;;;11.60;7.27;;;;;;;16.38;100.00;97342.31;5073724;28;20207;-76
2023/07/24 01:47:58;;;;;;;9.83;7.03;;;;;;;16.37;100.00;97340.59;5073409;28;20234;-74
2023/07/24 01:50:24;;;;;;;9.60;7.07;;;;;;;16.36;100.00;97344.28;5072880;28;20226;-77
2023/07/24 01:52:51;;;;;;;9.93;6.90;;;;;;;16.37;100.00;97351.28;5073350;28;20218;-75
2023/07/24 01:55:18;;;;;;;9.67;7.20;;;;;;;16.38;100.00;97344.97;5073211;28;20215;-76
2023/07/24 01:57:44;;;;;;;8.57;6.77;;;;;;;16.37;100.00;97348.63;5072927;28;20235;-75
2023/07/24 02:00:13;;;;;;;10.77;7.17;;;;;;;16.37;100.00;97343.28;5072462;28;20302;-75
2023/07/24 02:02:41;;;;;;;10.43;7.10;;;;;;;16.34;100.00;97340.91;5073387;28;20671;-76
2023/07/24 02:05:08;;;;;;;9.87;7.03;;;;;;;16.31;100.00;97351.06;5073267;28;20207;-75
2023/07/24 02:07:35;;;;;;;11.37;7.30;;;;;;;16.32;100.00;97347.41;5073104;28;20239;-75
2023/07/24 02:10:03;;;;;;;10.93;6.80;;;;;;;16.34;100.00;97345.44;5072188;28;20220;-76
2023/07/24 02:12:30;;;;;;;8.93;6.80;;;;;;;16.36;100.00;97343.44;5072917;28;20211;-75
2023/07/24 02:14:57;;;;;;;9.47;6.70;;;;;;;16.36;100.00;97348.75;5072860;28;20212;-75
2023/07/24 02:17:25;;;;;;;10.33;7.17;;;;;;;16.35;100.00;97342.59;5072730;28;20227;-75
2023/07/24 02:19:51;;;;;;;10.00;7.27;;;;;;;16.37;100.00;97339.75;5071951;28;20226;-76
2023/07/24 02:22:18;;;;;;;9.97;7.10;;;;;;;16.41;100.00;97331.31;5072717;28;20559;-76
2023/07/24 02:24:44;;;;;;;9.47;6.53;;;;;;;16.46;100.00;97330.84;5072610;28;20212;-76
2023/07/24 02:27:14;;;;;;;9.00;6.73;;;;;;;16.51;100.00;97326.69;5072847;28;20218;-76
2023/07/24 02:29:40;;;;;;;10.20;7.00;;;;;;;16.55;100.00;97337.84;5071960;28;20219;-76
2023/07/24 02:32:08;;;;;;;9.33;7.10;;;;;;;16.57;100.00;97339.38;5072318;28;20673;-76
2023/07/24 02:34:35;;;;;;;9.53;7.70;;;;;;;16.57;100.00;97347.38;5071498;28;20696;-76
2023/07/24 02:37:02;;;;;;;10.97;7.07;;;;;;;16.56;100.00;97340.38;5072285;28;20250;-76
2023/07/24 02:39:28;;;;;;;9.80;7.13;;;;;;;16.58;100.00;97342.88;5071418;28;20255;-76
2023/07/24 02:41:55;;;;;;;9.93;7.03;;;;;;;16.61;100.00;97343.41;5072533;28;20223;-77
2023/07/24 02:44:21;;;;;;;10.80;7.60;;;;;;;16.63;100.00;97341.38;5072515;28;20207;-76
2023/07/24 02:46:48;;;;;;;10.57;7.40;;;;;;;16.60;100.00;97323.06;5072371;28;20203;-76
2023/07/24 02:49:14;;;;;;;10.27;6.90;;;;;;;16.58;100.00;97325.03;5071444;28;20223;-76
2023/07/24 02:51:42;;;;;;;11.50;7.50;;;;;;;16.57;100.00;97325.22;5072207;28;20211;-74
2023/07/24 02:54:08;;;;;;;10.10;7.33;;;;;;;16.56;100.00;97319.03;5072026;28;20223;-75
2023/07/24 02:56:35;;;;;;;9.17;6.80;;;;;;;16.56;100.00;97321.69;5071871;28;20227;-75
2023/07/24 02:59:02;;;;;;;10.70;7.43;;;;;;;16.55;100.00;97306.69;5071790;28;20227;-74
2023/07/24 03:01:28;;;;;;;10.07;7.30;;;;;;;16.53;100.00;97311.34;5071551;28;20218;-75
2023/07/24 03:03:54;;;;;;;10.67;6.97;;;;;;;16.53;100.00;97311.34;5071886;28;20214;-74
2023/07/24 03:06:21;;;;;;;8.90;7.03;;;;;;;16.53;100.00;97308.66;5071741;28;20211;-75
2023/07/24 03:08:49;;;;;;;9.00;6.80;;;;;;;16.53;100.00;97300.66;5071838;28;20239;-75
2023/07/24 03:11:15;;;;;;;8.37;6.70;;;;;;;16.50;100.00;97301.00;5071391;28;20208;-77
2023/07/24 03:13:42;;;;;;;9.23;6.40;;;;;;;16.44;100.00;97293.66;5071848;28;20203;-75
2023/07/24 03:16:09;;;;;;;9.33;6.80;;;;;;;16.39;100.00;97300.50;5071715;28;20626;-77
2023/07/24 03:18:36;;;;;;;10.60;7.13;;;;;;;16.31;100.00;97303.91;5071538;28;20235;-75
2023/07/24 03:21:03;;;;;;;10.33;6.77;;;;;;;16.19;100.00;97283.03;5071066;28;20211;-75
2023/07/24 03:23:30;;;;;;;9.80;7.00;;;;;;;16.16;100.00;97284.19;5071804;28;20215;-75
2023/07/24 03:25:57;;;;;;;12.93;7.43;;;;;;;16.08;100.00;97271.84;5071875;28;20211;-75
2023/07/24 03:28:25;;;;;;;9.67;6.83;;;;;;;16.04;100.00;97277.47;5071409;28;20230;-75
2023/07/24 03:30:51;;;;;;;9.93;6.40;;;;;;;16.01;100.00;97294.78;5070830;28;20340;-74
2023/07/24 03:33:18;;;;;;;9.30;6.80;;;;;;;16.02;100.00;97315.13;5071466;28;20203;-75
2023/07/24 03:35:44;;;;;;;10.67;7.00;;;;;;;16.07;100.00;97302.97;5071359;28;20211;-76
2023/07/24 03:38:11;;;;;;;8.40;6.27;;;;;;;16.12;100.00;97300.66;5085965;22;20228;-79
2023/07/24 03:40:38;;;;;;;9.00;6.73;;;;;;;16.13;100.00;97299.66;5070901;28;20249;-79
2023/07/24 03:43:06;;;;;;;8.07;6.60;;;;;;;16.12;100.00;97292.66;5071292;28;20250;-79
2023/07/24 03:45:33;;;;;;;10.50;6.90;;;;;;;16.10;100.00;97292.81;5071070;28;20207;-81
2023/07/24 03:47:59;;;;;;;10.50;7.07;;;;;;;16.12;100.00;97275.84;5071000;28;20239;-79
2023/07/24 03:50:26;;;;;;;8.87;6.50;;;;;;;16.13;100.00;97281.84;5070949;28;20615;-82
2023/07/24 03:52:52;;;;;;;9.00;6.80;;;;;;;16.17;100.00;97291.22;5071057;28;20207;-79
2023/07/24 03:55:19;;;;;;;9.97;6.87;;;;;;;16.24;100.00;97278.06;5071095;28;20207;-79
2023/07/24 03:57:45;;;;;;;11.00;7.07;;;;;;;16.30;100.00;97285.41;5070813;28;20223;-79
2023/07/24 04:00:14;;;;;;;10.83;6.60;;;;;;;16.40;100.00;97292.31;5070282;28;20711;-79
2023/07/24 04:02:41;;;;;;;9.03;6.47;;;;;;;16.46;100.00;97291.66;5070984;28;20212;-79
2023/07/24 04:05:08;;;;;;;8.93;6.33;;;;;;;16.52;100.00;97290.19;5072008;28;20214;-81
2023/07/24 04:07:34;;;;;;;9.20;6.20;;;;;;;16.57;100.00;97288.69;5071796;28;20228;-78
2023/07/24 04:10:01;;;;;;;9.23;6.63;;;;;;;16.66;100.00;97287.72;5071020;28;20222;-79
2023/07/24 04:12:27;;;;;;;9.27;6.30;;;;;;;16.71;100.00;97290.72;5071796;28;20207;-79
2023/07/24 04:14:54;;;;;;;8.80;6.27;;;;;;;16.79;100.00;97293.41;5071663;28;20218;-79
2023/07/24 04:17:22;;;;;;;8.67;6.40;;;;;;;16.85;100.00;97282.06;5070985;28;20231;-79
2023/07/24 04:19:48;;;;;;;8.80;6.30;;;;;;;16.90;100.00;97269.06;5070920;28;20618;-79
2023/07/24 04:22:15;;;;;;;10.13;6.77;;;;;;;17.00;100.00;97272.41;5071751;28;20234;-79
2023/07/24 04:24:41;;;;;;;10.17;7.23;;;;;;;17.07;100.00;97265.38;5071740;28;20212;-79
2023/07/24 04:27:07;;;;;;;9.33;6.90;;;;;;;17.10;100.00;97265.06;5071435;28;20204;-78
2023/07/24 04:29:34;;;;;;;10.40;7.17;;;;;;;17.15;100.00;97256.56;5070468;28;20254;-80
2023/07/24 04:32:00;;;;;;;10.20;7.23;;;;;;;17.16;100.00;97258.22;5070945;28;20216;-81
2023/07/24 04:34:28;;;;;;;10.40;7.20;;;;;;;17.20;100.00;97257.69;5071306;28;20214;-81
2023/07/24 04:36:55;;;;;;;9.47;6.80;;;;;;;17.23;100.00;97249.38;5071029;28;20231;-80
2023/07/24 04:39:21;;;;;;;9.70;6.77;;;;;;;17.28;100.00;97239.03;5070341;28;20243;-81
2023/07/24 04:41:48;;;;;;;10.33;6.83;;;;;;;17.34;100.00;97240.16;5071109;28;20218;-81
2023/07/24 04:44:14;;;;;;;9.43;6.70;;;;;;;17.39;100.00;97244.06;5071331;28;20699;-81
2023/07/24 04:46:41;;;;;;;11.20;7.53;;;;;;;17.51;100.00;97253.38;5071365;28;20299;-81
2023/07/24 04:49:07;;;;;;;9.40;6.47;;;;;;;17.60;100.00;97247.00;5070770;28;20310;-80
2023/07/24 04:51:35;;;;;;;8.47;6.30;;;;;;;17.65;100.00;97233.97;5071240;28;20203;-80
2023/07/24 04:54:01;;;;;;;8.27;6.30;;;;;;;17.72;100.00;97239.44;5071093;28;20210;-79
2023/07/24 04:56:28;;;;;;;9.50;6.77;;;;;;;17.76;100.00;97235.44;5070631;28;20585;-80
2023/07/24 04:58:54;;;;;;;9.97;7.07;;;;;;;17.75;100.00;97239.94;5073885;28;20231;-81
2023/07/24 05:01:21;;;;;;;9.87;6.70;;;;;;;17.70;100.00;97246.81;5074160;28;20207;-81
2023/07/24 05:03:47;;;;;;;9.33;6.50;;;;;;;17.65;100.00;97239.31;5074739;28;20218;-81
2023/07/24 05:06:14;;;;;;;9.13;6.40;;;;;;;17.65;100.00;97228.63;5074496;28;20203;-80
2023/07/24 05:08:41;;;;;;;8.63;6.20;;;;;;;17.68;100.00;97222.94;5074305;28;20227;-80
2023/07/24 05:11:08;;;;;;;8.67;6.50;;;;;;;17.71;100.00;97222.59;5074296;28;20599;-81
2023/07/24 05:13:34;;;;;;;9.47;6.60;;;;;;;17.76;100.00;97224.75;5074663;28;20208;-80
2023/07/24 05:16:01;;;;;;;8.43;6.20;;;;;;;17.86;100.00;97234.22;5074644;28;20211;-79
2023/07/24 05:18:27;;;;;;;8.33;6.17;;;;;;;17.96;100.00;97226.84;5074313;28;20235;-79
2023/07/24 05:20:54;;;;;;;10.20;7.33;;;;;;;18.05;100.00;97231.13;5073606;28;20569;-80
2023/07/24 05:23:20;;;;;;;9.90;6.93;;;;;;;18.15;100.00;97234.44;5074034;28;20220;-79
2023/07/24 05:25:48;;;;;;;9.83;6.97;;;;;;;18.21;100.00;97230.22;5074143;28;20211;-79
2023/07/24 05:28:15;;;;;;;9.10;6.60;;;;;;;18.27;100.00;97222.34;5073863;28;20227;-79
2023/07/24 05:30:41;;;;;;;8.87;6.43;;;;;;;18.34;100.00;97233.22;5073246;28;20221;-79
2023/07/24 05:33:08;;;;;;;8.07;6.00;;;;;;;18.36;100.00;97239.22;5073486;28;20215;-80
2023/07/24 05:35:34;;;;;;;10.53;6.70;;;;;;;18.38;100.00;97259.44;5073774;28;20211;-80
2023/07/24 05:38:03;;;;;;;10.70;6.40;;;;;;;18.42;100.00;97263.41;5073448;28;20242;-79
2023/07/24 05:40:33;;;;;;;10.40;6.47;;;;;;;18.43;100.00;97267.78;5072984;28;20215;-80
2023/07/24 05:43:01;;;;;;;10.53;6.67;;;;;;;18.45;100.00;97271.09;5073699;28;20207;-80
2023/07/24 05:45:28;;;;;;;8.70;6.87;;;;;;;18.49;100.00;97277.78;5073697;28;20217;-80
2023/07/24 05:47:54;;;;;;;8.87;6.77;;;;;;;18.51;100.00;97281.13;5073359;28;20231;-80
2023/07/24 05:50:20;;;;;;;10.20;6.90;;;;;;;18.53;100.00;97270.25;5072740;28;20211;-80
2023/07/24 05:52:47;;;;;;;9.10;6.67;;;;;;;18.54;100.00;97287.97;5073529;28;20211;-80
2023/07/24 05:55:13;;;;;;;9.03;6.47;;;;;;;18.55;100.00;97293.13;5073189;28;20218;-80
2023/07/24 05:57:40;;;;;;;9.87;6.37;;;;;;;18.59;100.00;97282.91;5073511;28;20710;-79
2023/07/24 06:00:09;;;;;;;10.13;6.83;;;;;;;18.65;100.00;97287.56;5073129;28;20215;-80
2023/07/24 06:02:35;;;;;;;10.30;7.43;;;;;;;18.64;100.00;97284.03;5073532;28;20214;-80
2023/07/24 06:05:02;;;;;;;11.03;7.80;;;;;;;18.68;100.00;97287.19;5073738;28;20212;-80
2023/07/24 06:07:28;;;;;;;11.73;7.13;;;;;;;18.73;100.00;97291.03;5073152;28;20294;-80
2023/07/24 06:09:55;;;;;;;12.63;7.70;;;;;;;18.79;100.00;97279.63;5072190;28;20689;-79
2023/07/24 06:12:21;;;;;;;11.30;7.13;;;;;;;18.88;100.00;97288.41;5073312;28;20222;-80
2023/07/24 06:14:48;;;;;;;9.83;7.27;;;;;;;18.94;100.00;97276.97;5073327;28;20207;-80
2023/07/24 06:17:15;;;;;;;10.00;7.07;;;;;;;19.00;100.00;97266.41;5072822;28;20216;-79
2023/07/24 06:19:42;;;;;;;11.47;7.30;;;;;;;19.06;100.00;97260.31;5072307;28;20227;-80
2023/07/24 06:22:08;;;;;;;9.17;6.97;;;;;;;19.12;100.00;97270.31;5072841;28;20218;-80
2023/07/24 06:24:35;;;;;;;10.83;7.17;;;;;;;19.15;100.00;97264.59;5072879;28;20211;-80
2023/07/24 06:27:01;;;;;;;8.97;6.73;;;;;;;19.23;100.00;97267.25;5073046;28;20589;-80
2023/07/24 06:29:28;;;;;;;11.07;7.83;;;;;;;19.30;98.05;97259.31;5072112;28;20240;-80
2023/07/24 06:31:54;;;;;;;8.87;6.37;;;;;;;19.34;97.64;97248.06;5072366;28;20234;-79
2023/07/24 06:34:22;;;;;;;9.03;6.70;;;;;;;19.40;97.77;97247.34;5072180;28;20207;-76
2023/07/24 06:36:49;;;;;;;11.73;7.70;;;;;;;19.47;97.41;97247.44;5071272;28;20568;-76
2023/07/24 06:39:15;;;;;;;11.27;7.10;;;;;;;19.54;97.51;97238.50;5070939;28;20231;-77
2023/07/24 06:41:42;;;;;;;9.77;7.00;;;;;;;19.60;97.58;97251.16;5072360;28;20204;-76
2023/07/24 06:44:09;;;;;;;9.27;6.73;;;;;;;19.67;97.67;97238.69;5072123;28;20218;-76
2023/07/24 06:46:35;;;;;;;10.00;6.73;;;;;;;19.71;97.83;97233.78;5072207;28;20206;-76
2023/07/24 06:49:02;;;;;;;10.53;7.50;;;;;;;19.77;97.59;97231.22;5071753;28;20231;-76
2023/07/24 06:51:29;;;;;;;9.67;7.30;;;;;;;19.83;97.55;97222.44;5071488;28;20219;-76
2023/07/24 06:53:56;;;;;;;10.40;7.10;;;;;;;19.90;95.43;97226.03;5072027;28;20210;-76
2023/07/24 06:56:23;;;;;;;9.87;7.00;;;;;;;19.96;95.45;97227.97;5071492;28;20213;-75
2023/07/24 06:58:49;;;;;;;9.83;7.10;;;;;;;20.05;95.06;97232.22;5071334;28;20231;-76
2023/07/24 07:01:16;;;;;;;10.67;6.80;;;;;;;20.09;95.29;97228.19;5070706;28;20674;-75
2023/07/24 07:03:42;;;;;;;13.43;7.50;;;;;;;20.17;94.00;97225.38;5071534;28;20203;-76
2023/07/24 07:06:09;;;;;;;9.77;7.10;;;;;;;20.18;92.74;97205.56;5071545;28;20208;-76
2023/07/24 07:08:37;;;;;;;10.97;7.27;;;;;;;20.21;92.28;97199.84;5071419;28;20228;-75
2023/07/24 07:11:07;;;;;;;9.47;6.67;;;;;;;20.25;92.03;97193.06;5070539;28;20214;-75
2023/07/24 07:13:33;;;;;;;9.73;6.83;;;;;;;20.30;92.78;97214.00;5071152;28;20666;-76
2023/07/24 07:16:00;;;;;;;9.30;7.00;;;;;;;20.37;93.02;97215.72;5071313;28;20351;-75
2023/07/24 07:18:26;;;;;;;9.00;6.43;;;;;;;20.43;92.12;97220.31;5070856;28;20235;-76
2023/07/24 07:20:54;;;;;;;9.83;7.43;;;;;;;20.49;92.22;97233.00;5069889;28;20207;-75
2023/07/24 07:23:21;;;;;;;11.53;7.20;;;;;;;20.52;93.46;97246.06;5071070;28;20218;-75
2023/07/24 07:25:50;;;;;;;9.30;6.73;;;;;;;20.52;94.74;97261.31;5071283;28;20286;-76
2023/07/24 07:28:17;;;;;;;8.97;6.83;;;;;;;20.48;94.73;97263.53;5071194;28;20226;-75
2023/07/24 07:30:44;;;;;;;10.17;7.00;;;;;;;20.47;93.47;97253.84;5070514;28;20249;-75
2023/07/24 07:33:10;;;;;;;10.50;7.63;;;;;;;20.56;90.81;97258.09;5070833;28;20219;-76
2023/07/24 07:35:37;;;;;;;10.60;7.27;;;;;;;20.52;90.69;97264.84;5071267;28;20238;-76
2023/07/24 07:38:04;;;;;;;9.40;6.30;;;;;;;20.55;92.01;97263.63;5070337;28;20235;-75
2023/07/24 07:40:31;;;;;;;10.67;7.27;;;;;;;20.56;92.06;97267.97;5070448;28;20218;-76
2023/07/24 07:42:59;;;;;;;11.87;7.57;;;;;;;20.60;91.71;97270.09;5070739;28;20646;-75
2023/07/24 07:45:25;;;;;;;9.83;6.83;;;;;;;20.68;90.35;97266.47;5071159;28;20207;-76
2023/07/24 07:47:53;;;;;;;10.50;7.00;;;;;;;20.71;87.81;97276.81;5070696;28;20223;-75
2023/07/24 07:50:19;;;;;;;10.00;7.57;;;;;;;20.73;86.99;97280.97;5070209;28;20207;-76
2023/07/24 07:52:46;;;;;;;11.70;7.00;;;;;;;20.75;86.97;97297.75;5071104;28;20214;-76
2023/07/24 07:55:13;;;;;;;9.77;7.30;;;;;;;20.73;85.68;97291.72;5070906;28;20234;-76
2023/07/24 07:57:40;;;;;;;11.43;7.50;;;;;;;20.72;85.88;97292.75;5069052;28;20211;-74
2023/07/24 08:00:09;;;;;;;11.00;7.10;;;;;;;20.73;85.59;97305.16;5067320;28;20218;-75
2023/07/24 08:02:39;;;;;;;9.67;6.80;;;;;;;20.71;86.01;97309.88;5069985;28;20211;-75
2023/07/24 08:05:07;;;;;;;10.33;6.90;;;;;;;20.69;87.59;97322.69;5069771;28;20256;-75
2023/07/24 08:07:33;;;;;;;11.77;7.07;;;;;;;20.60;89.55;97339.09;5068803;28;20222;-75
2023/07/24 08:10:00;;;;;;;8.93;6.50;;;;;;;20.56;91.46;97352.06;5069160;28;20214;-75
2023/07/24 08:12:26;;;;;;;9.23;6.90;;;;;;;20.46;93.21;97362.22;5069836;28;20203;-75
2023/07/24 08:14:53;;;;;;;9.80;6.50;;;;;;;20.32;95.96;97368.44;5069128;28;20677;-75
2023/07/24 08:17:20;;;;;;;10.20;7.50;;;;;;;20.22;98.53;97362.50;5069525;28;20211;-75
2023/07/24 08:19:47;;;;;;;10.87;7.33;;;;;;;20.05;100.00;97360.16;5068716;28;20674;-75
2023/07/24 08:22:13;;;;;;;9.77;7.63;;;;;;;19.86;100.00;97348.09;5069128;28;20558;-75
2023/07/24 08:24:40;;;;;;;10.00;7.00;;;;;;;19.73;100.00;97336.31;5069783;28;20212;-75
2023/07/24 08:27:07;;;;;;;11.07;7.30;;;;;;;19.59;100.00;97332.59;5069641;28;20204;-75
2023/07/24 08:29:35;;;;;;;11.18;8.55;;;;;;;19.46;100.00;97335.06;5068454;28;20430;-74
2023/07/24 08:32:02;;;;;;;11.07;8.03;;;;;;;19.30;100.00;97327.16;5071207;28;20214;-75
2023/07/24 08:34:30;;;;;;;11.00;7.10;;;;;;;19.18;100.00;97317.81;5074505;28;20212;-75
2023/07/24 08:36:56;;;;;;;12.30;7.67;;;;;;;19.07;100.00;97309.38;5074250;28;20211;-75
2023/07/24 08:39:23;;;;;;;11.17;8.47;;;;;;;18.98;100.00;97287.19;5073296;28;20242;-75
2023/07/24 08:41:49;;;;;;;11.77;8.27;;;;;;;18.89;100.00;97274.03;5074027;28;20584;-74
2023/07/24 08:44:17;;;;;;;11.13;7.93;;;;;;;18.91;100.00;97259.41;5074284;28;20222;-74
2023/07/24 08:46:45;;;;;;;10.27;7.70;;;;;;;18.98;100.00;97263.06;5073830;28;20207;-74
2023/07/24 08:49:12;;;;;;;10.57;8.00;;;;;;;19.09;100.00;97249.25;5073305;28;20639;-75
2023/07/24 08:51:41;;;;;;;11.43;8.23;;;;;;;19.17;100.00;97226.91;5073986;28;20215;-74
2023/07/24 08:54:08;;;;;;;12.27;8.30;;;;;;;19.18;100.00;97205.31;5073780;28;20207;-74
2023/07/24 08:56:37;;;;;;;11.27;7.93;;;;;;;19.27;100.00;97214.97;5073669;28;20215;-75
2023/07/24 08:59:04;;;;;;;10.87;8.27;;;;;;;19.40;100.00;97215.19;5073827;28;20231;-75
2023/07/24 09:01:30;;;;;;;11.50;8.43;;;;;;;19.53;100.00;97220.75;5073490;28;20207;-75
2023/07/24 09:03:57;;;;;;;10.80;8.20;;;;;;;19.64;100.00;97222.94;5073695;28;20226;-74
2023/07/24 09:06:24;;;;;;;13.63;8.47;;;;;;;19.72;100.00;97236.28;5073662;28;20567;-74
2023/07/24 09:08:54;;;;;;;11.57;7.90;;;;;;;19.71;100.00;97226.59;5073359;28;20702;-74
2023/07/24 09:11:21;;;;;;;10.03;7.97;;;;;;;19.72;100.00;97235.44;5072844;28;20214;-75
2023/07/24 09:13:49;;;;;;;11.53;8.70;;;;;;;19.79;100.00;97242.56;5073679;28;20207;-74
2023/07/24 09:16:23;;;;;;;14.53;8.60;;;;;;;19.95;100.00;97242.41;5073569;28;20573;-75
2023/07/24 09:18:51;;;;;;;11.97;8.53;;;;;;;20.17;100.00;97241.47;5073596;28;20235;-76
2023/07/24 09:21:28;;;;;;;9.63;8.00;;;;;;;20.42;100.00;97234.78;5073119;28;20207;-76
2023/07/24 09:23:56;;;;;;;11.67;8.50;;;;;;;20.61;100.00;97236.84;5074032;28;20234;-76
2023/07/24 09:26:23;;;;;;;12.30;8.27;;;;;;;20.80;100.00;97238.91;5073579;28;20583;-75
2023/07/24 09:28:53;;;;;;;10.17;7.87;;;;;;;20.90;100.00;97250.22;5073181;28;20219;-75
2023/07/24 09:31:19;;;;;;;12.57;8.20;;;;;;;21.00;100.00;97260.66;5072706;28;20211;-76
2023/07/24 09:33:46;;;;;;;9.60;7.33;;;;;;;21.20;100.00;97261.66;5073250;28;20214;-76
2023/07/24 09:36:12;;;;;;;9.03;6.93;;;;;;;21.34;100.00;97275.03;5073310;28;20230;-76
2023/07/24 09:38:40;;;;;;;9.10;6.60;;;;;;;21.47;100.00;97267.06;5093143;22;20237;-75
2023/07/24 09:41:08;;;;;;;9.40;6.30;;;;;;;21.55;100.00;97256.19;5092987;28;20294;-75
2023/07/24 09:43:36;;;;;;;9.43;6.70;;;;;;;21.56;100.00;97252.47;5093069;28;20210;-74
2023/07/24 09:46:05;;;;;;;9.00;6.47;;;;;;;21.60;100.00;97253.75;5093543;28;20747;-74
2023/07/24 09:48:33;;;;;;;8.57;6.20;;;;;;;21.44;100.00;97250.50;5093469;28;20234;-75
2023/07/24 09:51:01;;;;;;;7.97;6.10;;;;;;;21.37;100.00;97253.16;5092612;28;20444;-77
2023/07/24 09:53:33;;;;;;;9.70;6.53;;;;;;;21.32;100.00;97260.97;5092221;28;20203;-77
2023/07/24 09:56:02;;;;;;;8.20;5.73;;;;;;;21.30;100.00;97270.22;5091206;28;20260;-76
2023/07/24 09:58:33;;;;;;;8.37;6.07;;;;;;;21.30;100.00;97276.47;5092316;28;20234;-74
2023/07/24 10:01:00;;;;;;;9.33;6.27;;;;;;;21.28;100.00;97285.72;5091746;28;20271;-75
2023/07/24 10:03:27;;;;;;;8.03;6.53;;;;;;;21.24;100.00;97296.03;5091405;28;20238;-75
2023/07/24 10:05:55;;;;;;;8.93;6.33;;;;;;;21.23;100.00;97298.91;5091886;28;20222;-75
2023/07/24 10:08:22;;;;;;;10.00;6.53;;;;;;;21.21;100.00;97301.78;5093106;28;20223;-76
2023/07/24 10:10:53;;;;;;;10.50;6.93;;;;;;;21.22;100.00;97308.81;5092443;28;20246;-75
2023/07/24 10:13:20;;;;;;;9.97;7.03;;;;;;;21.19;100.00;97316.44;5092987;28;20605;-79
2023/07/24 10:15:49;;;;;;;10.67;6.70;;;;;;;21.04;100.00;97316.47;5092896;28;20207;-76
2023/07/24 10:18:18;;;;;;;11.07;6.30;;;;;;;20.86;100.00;97318.72;5092878;28;20237;-80
2023/07/24 10:20:45;;;;;;;10.10;6.23;;;;;;;20.73;100.00;97317.75;5092177;28;20211;-78
2023/07/24 10:23:16;;;;;;;12.60;7.13;;;;;;;20.58;100.00;97325.84;5092848;28;20206;-78
2023/07/24 10:25:46;;;;;;;8.10;6.10;;;;;;;20.50;100.00;97317.06;5092903;28;20583;-78
2023/07/24 10:28:16;;;;;;;9.27;5.60;;;;;;;20.47;100.00;97323.63;5092408;28;20910;-80
2023/07/24 10:30:43;;;;;;;7.00;5.70;;;;;;;20.46;100.00;97327.34;5091976;28;20241;-78
2023/07/24 10:33:13;;;;;;;7.77;5.73;;;;;;;20.44;100.00;97329.38;5092596;28;20203;-75
2023/07/24 10:35:45;;;;;;;9.03;6.27;;;;;;;20.37;100.00;97315.00;5093315;28;20203;-75
2023/07/24 10:38:13;;;;;;;7.37;5.43;;;;;;;20.29;100.00;97323.19;5093002;28;20207;-76
2023/07/24 10:40:40;;;;;;;9.73;6.13;;;;;;;20.21;100.00;97333.16;5092064;28;20731;-76
2023/07/24 10:43:08;;;;;;;7.73;6.03;;;;;;;20.13;100.00;97346.69;5098332;28;20195;-75
2023/07/24 10:45:47;;;;;;;8.93;6.20;;;;;;;20.08;100.00;97341.88;5109625;28;20238;-75
2023/07/24 10:48:15;;;;;;;8.60;5.87;;;;;;;20.02;100.00;97345.25;5102819;28;20918;-75
2023/07/24 10:50:43;;;;;;;7.43;5.97;;;;;;;19.95;100.00;97338.97;5106607;28;20215;-76
2023/07/24 10:53:11;;;;;;;8.83;6.00;;;;;;;19.88;100.00;97329.97;5106056;28;20211;-77
2023/07/24 10:55:38;;;;;;;9.37;5.53;;;;;;;19.73;100.00;97334.47;5091819;28;20207;-78
2023/07/24 10:58:04;;;;;;;10.30;6.63;;;;;;;19.62;100.00;97347.50;5092364;28;20402;-75
2023/07/24 11:00:31;;;;;;;9.93;6.40;;;;;;;19.54;100.00;97347.53;5090629;28;20716;-76
2023/07/24 11:02:58;;;;;;;7.93;5.97;;;;;;;19.45;100.00;97349.44;5091986;28;20214;-77
2023/07/24 11:05:26;;;;;;;9.73;6.47;;;;;;;19.40;100.00;97354.53;5089284;28;20677;-78
2023/07/24 11:07:52;;;;;;;9.33;6.40;;;;;;;19.40;100.00;97342.97;5088902;28;20230;-77
2023/07/24 11:10:20;;;;;;;11.30;6.33;;;;;;;19.30;100.00;97332.50;5088369;28;20233;-76
2023/07/24 11:12:47;;;;;;;8.40;6.33;;;;;;;19.22;100.00;97324.53;5091101;28;20203;-76
2023/07/24 11:15:14;;;;;;;10.37;6.33;;;;;;;19.15;100.00;97312.81;5091047;28;20207;-77
2023/07/24 11:17:42;;;;;;;8.37;6.60;;;;;;;19.07;100.00;97294.13;5090267;28;20211;-75
2023/07/24 11:20:10;;;;;;;8.67;6.37;;;;;;;19.00;100.00;97268.22;5088101;28;20245;-76
2023/07/24 11:22:41;;;;;;;10.47;6.90;;;;;;;18.94;100.00;97240.34;5089144;28;20210;-76